DAL511 KBOS-KDTW
Flight info
| Callsign | DAL511 |
|---|---|
| Flight time | 1h 31m |
| Altitude | 36000 |
| Route | HYLND7 HYLND CAM Q822 GONZZ DONEO TPGUN2 |
| Aircraft | B77W/H-SDE1E2E3FGHIJ2J3J4J5M1RWXY/LB1D1 |
Departure
| Time | 2026-05-04 00:22 |
|---|---|
| Airport | Boston Logan International Airport (KBOS) |
Arrival
| Time | 2026-05-04 01:53 |
|---|---|
| Airport | Detroit Metropolitan Wayne County Airport (KDTW) |
| Time | Latitude | Longitude | Altitude | Speed | Heading |
|---|---|---|---|---|---|
| 2026-05-03 23:59 | 42.36226 | -71.02424 | 30 ft | 0 kts | 274° |
| 2026-05-04 00:09 | 42.36225 | -71.02404 | 30 ft | 3 kts | 274° |
| 2026-05-04 00:09 | 42.36223 | -71.02376 | 30 ft | 3 kts | 274° |
| 2026-05-04 00:09 | 42.36222 | -71.02348 | 30 ft | 3 kts | 274° |
| 2026-05-04 00:10 | 42.36221 | -71.02321 | 30 ft | 3 kts | 255° |
| 2026-05-04 00:10 | 42.36218 | -71.02317 | 30 ft | 2 kts | 222° |
| 2026-05-04 00:10 | 42.36205 | -71.02331 | 30 ft | 2 kts | 211° |
| 2026-05-04 00:10 | 42.36191 | -71.02338 | 30 ft | 0 kts | 193° |
| 2026-05-04 00:13 | 42.36174 | -71.02344 | 30 ft | 12 kts | 192° |
| 2026-05-04 00:13 | 42.36111 | -71.02330 | 30 ft | 11 kts | 158° |
| 2026-05-04 00:13 | 42.36045 | -71.02272 | 30 ft | 12 kts | 127° |
| 2026-05-04 00:13 | 42.35998 | -71.02177 | 30 ft | 12 kts | 123° |
| 2026-05-04 00:14 | 42.35953 | -71.02077 | 30 ft | 12 kts | 121° |
| 2026-05-04 00:14 | 42.35908 | -71.01978 | 30 ft | 13 kts | 120° |
| 2026-05-04 00:14 | 42.35866 | -71.01871 | 30 ft | 13 kts | 114° |
| 2026-05-04 00:14 | 42.35841 | -71.01754 | 30 ft | 12 kts | 99° |
| 2026-05-04 00:15 | 42.35828 | -71.01645 | 30 ft | 12 kts | 93° |
| 2026-05-04 00:15 | 42.35876 | -71.01559 | 30 ft | 12 kts | 28° |
| 2026-05-04 00:15 | 42.35955 | -71.01519 | 30 ft | 12 kts | 19° |
| 2026-05-04 00:15 | 42.36037 | -71.01480 | 30 ft | 12 kts | 19° |
| 2026-05-04 00:16 | 42.36117 | -71.01441 | 30 ft | 12 kts | 20° |
| 2026-05-04 00:16 | 42.36199 | -71.01401 | 30 ft | 12 kts | 20° |
| 2026-05-04 00:16 | 42.36281 | -71.01360 | 30 ft | 13 kts | 26° |
| 2026-05-04 00:16 | 42.36302 | -71.01257 | 30 ft | 13 kts | 111° |
| 2026-05-04 00:17 | 42.36260 | -71.01141 | 30 ft | 15 kts | 116° |
| 2026-05-04 00:17 | 42.36217 | -71.01015 | 30 ft | 15 kts | 112° |
| 2026-05-04 00:17 | 42.36175 | -71.00887 | 30 ft | 15 kts | 114° |
| 2026-05-04 00:17 | 42.36133 | -71.00759 | 31 ft | 15 kts | 112° |
| 2026-05-04 00:18 | 42.36097 | -71.00624 | 31 ft | 16 kts | 109° |
| 2026-05-04 00:18 | 42.36061 | -71.00478 | 30 ft | 16 kts | 109° |
| 2026-05-04 00:18 | 42.36023 | -71.00332 | 30 ft | 17 kts | 109° |
| 2026-05-04 00:18 | 42.35985 | -71.00183 | 30 ft | 17 kts | 109° |
| 2026-05-04 00:19 | 42.35928 | -71.00047 | 30 ft | 17 kts | 132° |
| 2026-05-04 00:19 | 42.35847 | -70.99934 | 30 ft | 17 kts | 134° |
| 2026-05-04 00:19 | 42.35765 | -70.99824 | 30 ft | 17 kts | 135° |
| 2026-05-04 00:19 | 42.35682 | -70.99713 | 30 ft | 17 kts | 136° |
| 2026-05-04 00:20 | 42.35598 | -70.99604 | 30 ft | 17 kts | 136° |
| 2026-05-04 00:20 | 42.35518 | -70.99490 | 30 ft | 17 kts | 129° |
| 2026-05-04 00:20 | 42.35503 | -70.99341 | 29 ft | 16 kts | 69° |
| 2026-05-04 00:20 | 42.35576 | -70.99320 | 30 ft | 11 kts | 330° |
| 2026-05-04 00:21 | 42.35620 | -70.99374 | 30 ft | 12 kts | 315° |
| 2026-05-04 00:21 | 42.35773 | -70.99578 | 30 ft | 63 kts | 315° |
| 2026-05-04 00:21 | 42.36381 | -71.00397 | 30 ft | 183 kts | 315° |
| 2026-05-04 00:21 | 42.37457 | -71.01857 | 595 ft | 242 kts | 314° |
| 2026-05-04 00:22 | 42.38549 | -71.03326 | 1671 ft | 209 kts | 314° |
| 2026-05-04 00:22 | 42.39510 | -71.04990 | 2125 ft | 238 kts | 296° |
| 2026-05-04 00:22 | 42.40212 | -71.06995 | 3112 ft | 234 kts | 297° |
| 2026-05-04 00:22 | 42.40975 | -71.08931 | 3782 ft | 233 kts | 304° |
| 2026-05-04 00:23 | 42.42198 | -71.10400 | 4007 ft | 243 kts | 330° |
| 2026-05-04 00:23 | 42.43775 | -71.11272 | 4022 ft | 245 kts | 335° |
| 2026-05-04 00:23 | 42.45346 | -71.12105 | 4308 ft | 245 kts | 335° |
| 2026-05-04 00:23 | 42.46910 | -71.12949 | 5273 ft | 241 kts | 335° |
| 2026-05-04 00:24 | 42.48471 | -71.13797 | 6444 ft | 243 kts | 334° |
| 2026-05-04 00:24 | 42.50039 | -71.14655 | 7545 ft | 244 kts | 334° |
| 2026-05-04 00:24 | 42.51647 | -71.15511 | 8567 ft | 250 kts | 336° |
| 2026-05-04 00:24 | 42.53304 | -71.16279 | 9588 ft | 254 kts | 338° |
| 2026-05-04 00:25 | 42.55004 | -71.17042 | 10537 ft | 263 kts | 338° |
| 2026-05-04 00:25 | 42.56822 | -71.17860 | 10971 ft | 291 kts | 338° |
| 2026-05-04 00:25 | 42.58862 | -71.18783 | 11232 ft | 323 kts | 338° |
| 2026-05-04 00:25 | 42.61048 | -71.19780 | 11918 ft | 339 kts | 338° |
| 2026-05-04 00:26 | 42.63309 | -71.20789 | 12893 ft | 346 kts | 339° |
| 2026-05-04 00:26 | 42.65613 | -71.21819 | 13966 ft | 349 kts | 338° |
| 2026-05-04 00:26 | 42.67514 | -71.22677 | 14811 ft | 353 kts | 338° |
| 2026-05-04 00:26 | 42.69852 | -71.23740 | 15811 ft | 358 kts | 338° |
| 2026-05-04 00:27 | 42.72234 | -71.24825 | 16795 ft | 362 kts | 338° |
| 2026-05-04 00:27 | 42.74597 | -71.26030 | 17626 ft | 362 kts | 329° |
| 2026-05-04 00:27 | 42.76581 | -71.28131 | 18402 ft | 365 kts | 310° |
| 2026-05-04 00:27 | 42.78050 | -71.30983 | 19356 ft | 368 kts | 298° |
| 2026-05-04 00:28 | 42.78990 | -71.34239 | 20193 ft | 375 kts | 285° |
| 2026-05-04 00:28 | 42.79453 | -71.37724 | 20988 ft | 381 kts | 281° |
| 2026-05-04 00:28 | 42.79829 | -71.41367 | 21787 ft | 386 kts | 279° |
| 2026-05-04 00:28 | 42.80177 | -71.44971 | 22507 ft | 392 kts | 279° |
| 2026-05-04 00:29 | 42.80538 | -71.48674 | 23236 ft | 397 kts | 279° |
| 2026-05-04 00:29 | 42.80914 | -71.52420 | 23993 ft | 400 kts | 279° |
| 2026-05-04 00:29 | 42.81305 | -71.56186 | 24681 ft | 404 kts | 280° |
| 2026-05-04 00:29 | 42.81711 | -71.60004 | 25281 ft | 410 kts | 280° |
| 2026-05-04 00:30 | 42.82130 | -71.63894 | 25849 ft | 416 kts | 280° |
| 2026-05-04 00:30 | 42.82533 | -71.67621 | 26400 ft | 420 kts | 279° |
| 2026-05-04 00:30 | 42.82929 | -71.71280 | 26925 ft | 424 kts | 279° |
| 2026-05-04 00:30 | 42.83363 | -71.75291 | 27452 ft | 429 kts | 279° |
| 2026-05-04 00:31 | 42.83797 | -71.79313 | 27987 ft | 433 kts | 279° |
| 2026-05-04 00:31 | 42.84235 | -71.83395 | 28480 ft | 438 kts | 279° |
| 2026-05-04 00:31 | 42.84674 | -71.87488 | 28940 ft | 442 kts | 279° |
| 2026-05-04 00:31 | 42.85123 | -71.91698 | 29395 ft | 446 kts | 279° |
| 2026-05-04 00:32 | 42.85568 | -71.95888 | 29837 ft | 449 kts | 279° |
| 2026-05-04 00:32 | 42.86014 | -72.00091 | 30235 ft | 452 kts | 278° |
| 2026-05-04 00:32 | 42.86462 | -72.04339 | 30858 ft | 449 kts | 278° |
| 2026-05-04 00:32 | 42.86900 | -72.08507 | 31547 ft | 445 kts | 278° |
| 2026-05-04 00:33 | 42.87339 | -72.12694 | 31926 ft | 449 kts | 278° |
| 2026-05-04 00:33 | 42.88229 | -72.21239 | 32754 ft | 451 kts | 278° |
| 2026-05-04 00:33 | 42.88662 | -72.25416 | 33233 ft | 450 kts | 278° |
| 2026-05-04 00:34 | 42.89105 | -72.29710 | 33687 ft | 450 kts | 278° |
| 2026-05-04 00:34 | 42.89535 | -72.33885 | 34062 ft | 452 kts | 277° |
| 2026-05-04 00:34 | 42.89975 | -72.38186 | 34448 ft | 452 kts | 277° |
| 2026-05-04 00:34 | 42.90404 | -72.42381 | 34866 ft | 452 kts | 277° |
| 2026-05-04 00:35 | 42.90835 | -72.46622 | 35259 ft | 452 kts | 277° |
| 2026-05-04 00:35 | 42.91264 | -72.50860 | 35633 ft | 452 kts | 277° |
| 2026-05-04 00:35 | 42.91694 | -72.55120 | 35890 ft | 454 kts | 277° |
| 2026-05-04 00:36 | 42.92559 | -72.63738 | 35862 ft | 461 kts | 277° |
| 2026-05-04 00:36 | 42.93429 | -72.72480 | 35869 ft | 468 kts | 277° |
| 2026-05-04 00:37 | 42.94299 | -72.81273 | 35860 ft | 468 kts | 277° |
| 2026-05-04 00:37 | 42.95164 | -72.90081 | 35851 ft | 468 kts | 277° |
| 2026-05-04 00:38 | 42.96014 | -72.98840 | 35857 ft | 467 kts | 276° |
| 2026-05-04 00:38 | 42.96862 | -73.07660 | 35872 ft | 465 kts | 277° |
| 2026-05-04 00:39 | 42.97695 | -73.16326 | 35875 ft | 464 kts | 276° |
| 2026-05-04 00:39 | 42.98521 | -73.25060 | 35869 ft | 463 kts | 276° |
| 2026-05-04 00:40 | 42.99333 | -73.33789 | 35870 ft | 463 kts | 275° |
| 2026-05-04 00:40 | 42.99664 | -73.42579 | 35873 ft | 463 kts | 271° |
| 2026-05-04 00:41 | 42.99847 | -73.51365 | 35881 ft | 463 kts | 271° |
| 2026-05-04 00:41 | 43.00038 | -73.60158 | 35882 ft | 464 kts | 271° |
| 2026-05-04 00:42 | 43.00240 | -73.68984 | 35886 ft | 464 kts | 271° |
| 2026-05-04 00:42 | 43.00406 | -73.76239 | 35882 ft | 464 kts | 271° |
| 2026-05-04 00:43 | 43.00633 | -73.86531 | 35883 ft | 464 kts | 271° |
| 2026-05-04 00:43 | 43.00818 | -73.95353 | 35889 ft | 464 kts | 271° |
| 2026-05-04 00:44 | 43.00968 | -74.02750 | 35889 ft | 465 kts | 271° |
| 2026-05-04 00:44 | 43.01140 | -74.11514 | 35892 ft | 464 kts | 271° |
| 2026-05-04 00:45 | 43.01308 | -74.20342 | 35896 ft | 463 kts | 271° |
| 2026-05-04 00:45 | 43.01504 | -74.29146 | 35908 ft | 463 kts | 272° |
| 2026-05-04 00:46 | 43.01905 | -74.37896 | 35906 ft | 463 kts | 274° |
| 2026-05-04 00:46 | 43.02341 | -74.46680 | 35908 ft | 462 kts | 274° |
| 2026-05-04 00:47 | 43.02741 | -74.55447 | 35906 ft | 463 kts | 273° |
| 2026-05-04 00:47 | 43.03113 | -74.64123 | 35908 ft | 463 kts | 273° |
| 2026-05-04 00:48 | 43.03481 | -74.72895 | 35911 ft | 463 kts | 273° |
| 2026-05-04 00:48 | 43.03844 | -74.81698 | 35907 ft | 463 kts | 273° |
| 2026-05-04 00:49 | 43.04200 | -74.90457 | 35914 ft | 462 kts | 273° |
| 2026-05-04 00:49 | 43.04550 | -74.99237 | 35916 ft | 462 kts | 273° |
| 2026-05-04 00:50 | 43.04892 | -75.08007 | 35921 ft | 462 kts | 273° |
| 2026-05-04 00:50 | 43.05229 | -75.16801 | 35923 ft | 462 kts | 273° |
| 2026-05-04 00:51 | 43.05558 | -75.25532 | 35927 ft | 462 kts | 273° |
| 2026-05-04 00:51 | 43.05862 | -75.34306 | 35926 ft | 462 kts | 272° |
| 2026-05-04 00:52 | 43.06103 | -75.43059 | 35921 ft | 462 kts | 272° |
| 2026-05-04 00:52 | 43.06333 | -75.51887 | 35925 ft | 462 kts | 272° |
| 2026-05-04 00:53 | 43.06565 | -75.60683 | 35928 ft | 462 kts | 272° |
| 2026-05-04 00:53 | 43.06792 | -75.69455 | 35918 ft | 462 kts | 272° |
| 2026-05-04 00:54 | 43.07014 | -75.78249 | 35917 ft | 462 kts | 272° |
| 2026-05-04 00:54 | 43.07227 | -75.87017 | 35907 ft | 462 kts | 272° |
| 2026-05-04 00:55 | 43.07435 | -75.95822 | 35902 ft | 462 kts | 272° |
| 2026-05-04 00:55 | 43.07635 | -76.04551 | 35894 ft | 462 kts | 272° |
| 2026-05-04 00:56 | 43.07829 | -76.13317 | 35886 ft | 461 kts | 272° |
| 2026-05-04 00:56 | 43.08016 | -76.22087 | 35887 ft | 460 kts | 272° |
| 2026-05-04 00:57 | 43.08197 | -76.30855 | 35889 ft | 460 kts | 272° |
| 2026-05-04 00:57 | 43.08370 | -76.39598 | 35897 ft | 459 kts | 272° |
| 2026-05-04 00:58 | 43.08536 | -76.48338 | 35900 ft | 460 kts | 271° |
| 2026-05-04 00:58 | 43.08697 | -76.57004 | 35896 ft | 459 kts | 272° |
| 2026-05-04 00:59 | 43.08850 | -76.65755 | 35899 ft | 459 kts | 271° |
| 2026-05-04 00:59 | 43.08470 | -76.74467 | 35909 ft | 459 kts | 264° |
| 2026-05-04 01:00 | 43.07679 | -76.83150 | 35908 ft | 459 kts | 264° |
| 2026-05-04 01:00 | 43.06885 | -76.91810 | 35910 ft | 459 kts | 264° |
| 2026-05-04 01:01 | 43.06105 | -77.00481 | 35917 ft | 458 kts | 264° |
| 2026-05-04 01:01 | 43.05330 | -77.09131 | 35916 ft | 458 kts | 264° |
| 2026-05-04 01:02 | 43.04556 | -77.17710 | 35914 ft | 458 kts | 264° |
| 2026-05-04 01:02 | 43.03768 | -77.26367 | 35909 ft | 458 kts | 264° |
| 2026-05-04 01:03 | 43.02974 | -77.35014 | 35907 ft | 458 kts | 264° |
| 2026-05-04 01:03 | 43.02174 | -77.43647 | 35907 ft | 458 kts | 264° |
| 2026-05-04 01:04 | 43.01367 | -77.52291 | 35906 ft | 458 kts | 264° |
| 2026-05-04 01:04 | 43.00554 | -77.60915 | 35909 ft | 457 kts | 264° |
| 2026-05-04 01:05 | 42.99745 | -77.69437 | 35902 ft | 457 kts | 264° |
| 2026-05-04 01:05 | 42.98924 | -77.78024 | 35895 ft | 457 kts | 263° |
| 2026-05-04 01:06 | 42.98096 | -77.86605 | 35898 ft | 456 kts | 263° |
| 2026-05-04 01:06 | 42.97255 | -77.95245 | 35899 ft | 456 kts | 263° |
| 2026-05-04 01:07 | 42.96414 | -78.03821 | 35897 ft | 456 kts | 264° |
| 2026-05-04 01:07 | 42.95565 | -78.12402 | 35889 ft | 455 kts | 263° |
| 2026-05-04 01:08 | 42.94711 | -78.20971 | 35887 ft | 454 kts | 263° |
| 2026-05-04 01:08 | 42.93855 | -78.29507 | 35891 ft | 454 kts | 263° |
| 2026-05-04 01:09 | 42.92991 | -78.38046 | 35888 ft | 454 kts | 263° |
| 2026-05-04 01:09 | 42.92120 | -78.46591 | 35888 ft | 454 kts | 263° |
| 2026-05-04 01:10 | 42.91246 | -78.55105 | 35890 ft | 454 kts | 263° |
| 2026-05-04 01:10 | 42.90365 | -78.63624 | 35888 ft | 453 kts | 263° |
| 2026-05-04 01:11 | 42.89475 | -78.72155 | 35888 ft | 453 kts | 263° |
| 2026-05-04 01:11 | 42.88587 | -78.80616 | 35887 ft | 453 kts | 263° |
| 2026-05-04 01:12 | 42.87687 | -78.89126 | 35889 ft | 453 kts | 263° |
| 2026-05-04 01:12 | 42.86781 | -78.97629 | 35888 ft | 453 kts | 263° |
| 2026-05-04 01:13 | 42.85868 | -79.06134 | 35889 ft | 453 kts | 263° |
| 2026-05-04 01:13 | 42.84949 | -79.14634 | 35889 ft | 453 kts | 263° |
| 2026-05-04 01:14 | 42.84028 | -79.23101 | 35889 ft | 453 kts | 263° |
| 2026-05-04 01:14 | 42.83098 | -79.31580 | 35889 ft | 453 kts | 263° |
| 2026-05-04 01:15 | 42.82160 | -79.40079 | 35889 ft | 453 kts | 263° |
| 2026-05-04 01:15 | 42.81217 | -79.48561 | 35889 ft | 453 kts | 263° |
| 2026-05-04 01:16 | 42.80267 | -79.57054 | 35897 ft | 453 kts | 263° |
| 2026-05-04 01:16 | 42.79315 | -79.65515 | 35896 ft | 453 kts | 263° |
| 2026-05-04 01:17 | 42.78357 | -79.74003 | 35889 ft | 453 kts | 263° |
| 2026-05-04 01:17 | 42.77608 | -79.82513 | 35889 ft | 452 kts | 265° |
| 2026-05-04 01:18 | 42.76944 | -79.91006 | 35889 ft | 451 kts | 265° |
| 2026-05-04 01:18 | 42.76246 | -79.99488 | 35889 ft | 451 kts | 265° |
| 2026-05-04 01:19 | 42.75526 | -80.07923 | 35879 ft | 451 kts | 265° |
| 2026-05-04 01:19 | 42.74794 | -80.16380 | 35881 ft | 451 kts | 265° |
| 2026-05-04 01:20 | 42.74052 | -80.24881 | 35879 ft | 451 kts | 265° |
| 2026-05-04 01:20 | 42.73309 | -80.33342 | 35880 ft | 451 kts | 265° |
| 2026-05-04 01:21 | 42.72677 | -80.41799 | 35625 ft | 445 kts | 268° |
| 2026-05-04 01:21 | 42.72505 | -80.45968 | 35459 ft | 440 kts | 269° |
| 2026-05-04 01:21 | 42.72358 | -80.50181 | 35268 ft | 438 kts | 269° |
| 2026-05-04 01:21 | 42.72213 | -80.54249 | 35004 ft | 436 kts | 269° |
| 2026-05-04 01:22 | 42.72055 | -80.58361 | 34754 ft | 434 kts | 269° |
| 2026-05-04 01:22 | 42.71885 | -80.62439 | 34537 ft | 428 kts | 268° |
| 2026-05-04 01:22 | 42.71710 | -80.66434 | 34098 ft | 421 kts | 269° |
| 2026-05-04 01:22 | 42.71532 | -80.70410 | 33485 ft | 419 kts | 269° |
| 2026-05-04 01:23 | 42.71356 | -80.74353 | 32914 ft | 417 kts | 269° |
| 2026-05-04 01:23 | 42.71179 | -80.78261 | 32420 ft | 412 kts | 269° |
| 2026-05-04 01:23 | 42.71003 | -80.82135 | 31949 ft | 407 kts | 269° |
| 2026-05-04 01:23 | 42.70827 | -80.85961 | 31465 ft | 403 kts | 269° |
| 2026-05-04 01:24 | 42.70653 | -80.89726 | 30970 ft | 399 kts | 269° |
| 2026-05-04 01:24 | 42.70477 | -80.93489 | 30468 ft | 395 kts | 269° |
| 2026-05-04 01:24 | 42.70302 | -80.97192 | 29979 ft | 391 kts | 269° |
| 2026-05-04 01:24 | 42.70129 | -81.00842 | 29475 ft | 388 kts | 269° |
| 2026-05-04 01:25 | 42.69954 | -81.04514 | 28981 ft | 385 kts | 269° |
| 2026-05-04 01:25 | 42.69781 | -81.08132 | 28441 ft | 382 kts | 269° |
| 2026-05-04 01:25 | 42.69608 | -81.11717 | 27907 ft | 379 kts | 268° |
| 2026-05-04 01:25 | 42.69436 | -81.15268 | 27408 ft | 376 kts | 268° |
| 2026-05-04 01:26 | 42.69262 | -81.18817 | 26912 ft | 373 kts | 268° |
| 2026-05-04 01:26 | 42.69090 | -81.22322 | 26389 ft | 371 kts | 268° |
| 2026-05-04 01:26 | 42.68919 | -81.25806 | 25889 ft | 368 kts | 268° |
| 2026-05-04 01:26 | 42.68747 | -81.29268 | 25403 ft | 365 kts | 268° |
| 2026-05-04 01:27 | 42.68575 | -81.32702 | 24928 ft | 362 kts | 268° |
| 2026-05-04 01:27 | 42.68396 | -81.36089 | 24443 ft | 360 kts | 267° |
| 2026-05-04 01:27 | 42.68136 | -81.39471 | 23950 ft | 358 kts | 265° |
| 2026-05-04 01:27 | 42.67843 | -81.42781 | 23496 ft | 355 kts | 265° |
| 2026-05-04 01:28 | 42.67638 | -81.45035 | 23170 ft | 354 kts | 265° |
| 2026-05-04 01:28 | 42.67247 | -81.49398 | 22558 ft | 351 kts | 265° |
| 2026-05-04 01:28 | 42.66959 | -81.52674 | 22102 ft | 348 kts | 265° |
| 2026-05-04 01:28 | 42.66674 | -81.55952 | 21630 ft | 346 kts | 265° |
| 2026-05-04 01:29 | 42.66394 | -81.59186 | 21140 ft | 344 kts | 265° |
| 2026-05-04 01:29 | 42.66206 | -81.61362 | 20827 ft | 343 kts | 265° |
| 2026-05-04 01:29 | 42.65931 | -81.64553 | 20375 ft | 341 kts | 265° |
| 2026-05-04 01:29 | 42.65654 | -81.67744 | 19915 ft | 339 kts | 265° |
| 2026-05-04 01:30 | 42.65379 | -81.70909 | 19462 ft | 337 kts | 265° |
| 2026-05-04 01:30 | 42.65104 | -81.74065 | 19012 ft | 335 kts | 265° |
| 2026-05-04 01:30 | 42.64828 | -81.77213 | 18546 ft | 333 kts | 265° |
| 2026-05-04 01:30 | 42.64556 | -81.80324 | 18104 ft | 331 kts | 265° |
| 2026-05-04 01:31 | 42.64282 | -81.83425 | 17643 ft | 329 kts | 265° |
| 2026-05-04 01:31 | 42.64014 | -81.86446 | 17228 ft | 327 kts | 264° |
| 2026-05-04 01:31 | 42.63739 | -81.89535 | 16780 ft | 325 kts | 264° |
| 2026-05-04 01:31 | 42.63472 | -81.92533 | 16344 ft | 323 kts | 264° |
| 2026-05-04 01:32 | 42.63198 | -81.95602 | 15896 ft | 320 kts | 264° |
| 2026-05-04 01:32 | 42.62934 | -81.98554 | 15474 ft | 319 kts | 264° |
| 2026-05-04 01:32 | 42.62665 | -82.01544 | 15028 ft | 317 kts | 264° |
| 2026-05-04 01:32 | 42.62399 | -82.04501 | 14581 ft | 316 kts | 264° |
| 2026-05-04 01:33 | 42.62133 | -82.07449 | 14139 ft | 314 kts | 264° |
| 2026-05-04 01:33 | 42.61867 | -82.10389 | 13706 ft | 313 kts | 264° |
| 2026-05-04 01:33 | 42.61601 | -82.13318 | 13288 ft | 310 kts | 264° |
| 2026-05-04 01:33 | 42.61339 | -82.16196 | 12890 ft | 308 kts | 264° |
| 2026-05-04 01:34 | 42.61075 | -82.19083 | 12464 ft | 306 kts | 263° |
| 2026-05-04 01:34 | 42.60812 | -82.21949 | 12024 ft | 305 kts | 263° |
| 2026-05-04 01:34 | 42.60547 | -82.24840 | 11617 ft | 303 kts | 263° |
| 2026-05-04 01:34 | 42.60290 | -82.27633 | 11232 ft | 301 kts | 263° |
| 2026-05-04 01:35 | 42.60025 | -82.30471 | 10981 ft | 298 kts | 263° |
| 2026-05-04 01:35 | 42.59772 | -82.33230 | 10987 ft | 301 kts | 263° |
| 2026-05-04 01:35 | 42.59512 | -82.36043 | 10980 ft | 302 kts | 263° |
| 2026-05-04 01:35 | 42.59249 | -82.38869 | 10968 ft | 299 kts | 263° |
| 2026-05-04 01:36 | 42.58983 | -82.41613 | 10931 ft | 281 kts | 260° |
| 2026-05-04 01:36 | 42.58467 | -82.44067 | 10703 ft | 263 kts | 250° |
| 2026-05-04 01:36 | 42.57754 | -82.46334 | 10467 ft | 259 kts | 248° |
| 2026-05-04 01:36 | 42.57027 | -82.48549 | 10202 ft | 254 kts | 248° |
| 2026-05-04 01:37 | 42.56316 | -82.50737 | 9950 ft | 251 kts | 248° |
| 2026-05-04 01:37 | 42.55626 | -82.52900 | 9698 ft | 248 kts | 248° |
| 2026-05-04 01:37 | 42.54952 | -82.55034 | 9452 ft | 245 kts | 248° |
| 2026-05-04 01:37 | 42.54290 | -82.57151 | 9212 ft | 242 kts | 248° |
| 2026-05-04 01:38 | 42.53638 | -82.59248 | 8960 ft | 240 kts | 248° |
| 2026-05-04 01:38 | 42.53000 | -82.61302 | 8716 ft | 239 kts | 248° |
| 2026-05-04 01:38 | 42.52351 | -82.63392 | 8465 ft | 237 kts | 248° |
| 2026-05-04 01:38 | 42.51720 | -82.65420 | 8242 ft | 236 kts | 248° |
| 2026-05-04 01:39 | 42.51084 | -82.67468 | 8005 ft | 235 kts | 248° |
| 2026-05-04 01:39 | 42.50444 | -82.69499 | 7759 ft | 234 kts | 248° |
| 2026-05-04 01:39 | 42.49802 | -82.71511 | 7537 ft | 233 kts | 248° |
| 2026-05-04 01:39 | 42.49161 | -82.73516 | 7309 ft | 232 kts | 247° |
| 2026-05-04 01:40 | 42.48561 | -82.75568 | 7059 ft | 227 kts | 257° |
| 2026-05-04 01:40 | 42.48551 | -82.77655 | 6985 ft | 230 kts | 276° |
| 2026-05-04 01:40 | 42.49060 | -82.79760 | 6946 ft | 239 kts | 291° |
| 2026-05-04 01:40 | 42.49862 | -82.81768 | 6934 ft | 237 kts | 294° |
| 2026-05-04 01:41 | 42.50649 | -82.83655 | 6930 ft | 223 kts | 294° |
| 2026-05-04 01:41 | 42.51380 | -82.85408 | 6921 ft | 209 kts | 293° |
| 2026-05-04 01:41 | 42.52089 | -82.87131 | 6939 ft | 210 kts | 293° |
| 2026-05-04 01:41 | 42.52790 | -82.88862 | 6941 ft | 210 kts | 293° |
| 2026-05-04 01:42 | 42.53491 | -82.90592 | 6933 ft | 208 kts | 293° |
| 2026-05-04 01:42 | 42.54184 | -82.92302 | 6940 ft | 205 kts | 292° |
| 2026-05-04 01:42 | 42.54839 | -82.94009 | 6940 ft | 202 kts | 289° |
| 2026-05-04 01:42 | 42.55384 | -82.95763 | 6951 ft | 201 kts | 287° |
| 2026-05-04 01:43 | 42.55905 | -82.97520 | 6940 ft | 202 kts | 287° |
| 2026-05-04 01:43 | 42.56426 | -82.99289 | 6784 ft | 205 kts | 287° |
| 2026-05-04 01:43 | 42.56962 | -83.01103 | 6329 ft | 209 kts | 287° |
| 2026-05-04 01:43 | 42.57491 | -83.02933 | 5847 ft | 205 kts | 283° |
| 2026-05-04 01:44 | 42.57588 | -83.04760 | 5315 ft | 192 kts | 251° |
| 2026-05-04 01:44 | 42.56812 | -83.06188 | 5111 ft | 195 kts | 224° |
| 2026-05-04 01:44 | 42.55726 | -83.07387 | 4990 ft | 204 kts | 222° |
| 2026-05-04 01:44 | 42.54616 | -83.08562 | 4953 ft | 198 kts | 222° |
| 2026-05-04 01:45 | 42.53520 | -83.09663 | 4949 ft | 196 kts | 219° |
| 2026-05-04 01:45 | 42.52370 | -83.10692 | 4962 ft | 199 kts | 216° |
| 2026-05-04 01:45 | 42.49953 | -83.12611 | 4972 ft | 202 kts | 214° |
| 2026-05-04 01:46 | 42.48734 | -83.13533 | 4967 ft | 202 kts | 214° |
| 2026-05-04 01:46 | 42.47503 | -83.14458 | 4966 ft | 201 kts | 214° |
| 2026-05-04 01:46 | 42.46299 | -83.15357 | 4968 ft | 200 kts | 214° |
| 2026-05-04 01:46 | 42.45064 | -83.16277 | 4960 ft | 200 kts | 214° |
| 2026-05-04 01:47 | 42.43845 | -83.17182 | 4962 ft | 199 kts | 214° |
| 2026-05-04 01:47 | 42.42637 | -83.18083 | 4971 ft | 198 kts | 214° |
| 2026-05-04 01:47 | 42.41449 | -83.18969 | 4922 ft | 201 kts | 214° |
| 2026-05-04 01:47 | 42.40194 | -83.19903 | 4656 ft | 206 kts | 214° |
| 2026-05-04 01:48 | 42.38946 | -83.20829 | 4402 ft | 203 kts | 214° |
| 2026-05-04 01:48 | 42.37732 | -83.21727 | 4138 ft | 195 kts | 213° |
| 2026-05-04 01:48 | 42.36569 | -83.22592 | 3867 ft | 186 kts | 214° |
| 2026-05-04 01:48 | 42.35478 | -83.23399 | 3615 ft | 171 kts | 214° |
| 2026-05-04 01:49 | 42.34427 | -83.24182 | 3403 ft | 174 kts | 213° |
| 2026-05-04 01:49 | 42.33382 | -83.24957 | 3189 ft | 166 kts | 214° |
| 2026-05-04 01:49 | 42.32419 | -83.25669 | 2950 ft | 150 kts | 214° |
| 2026-05-04 01:49 | 42.31543 | -83.26320 | 2783 ft | 139 kts | 213° |
| 2026-05-04 01:50 | 42.30711 | -83.26937 | 2587 ft | 133 kts | 212° |
| 2026-05-04 01:50 | 42.29901 | -83.27539 | 2413 ft | 132 kts | 212° |
| 2026-05-04 01:50 | 42.29125 | -83.28113 | 2243 ft | 125 kts | 211° |
| 2026-05-04 01:50 | 42.28368 | -83.28674 | 2080 ft | 123 kts | 211° |
| 2026-05-04 01:51 | 42.27611 | -83.29237 | 1920 ft | 125 kts | 209° |
| 2026-05-04 01:51 | 42.26868 | -83.29786 | 1742 ft | 118 kts | 209° |
| 2026-05-04 01:51 | 42.26156 | -83.30313 | 1592 ft | 115 kts | 209° |
| 2026-05-04 01:51 | 42.25466 | -83.30824 | 1439 ft | 109 kts | 209° |
| 2026-05-04 01:52 | 42.24811 | -83.31307 | 1314 ft | 105 kts | 209° |
| 2026-05-04 01:52 | 42.24165 | -83.31786 | 1187 ft | 109 kts | 209° |
| 2026-05-04 01:52 | 42.23505 | -83.32274 | 998 ft | 103 kts | 209° |
| 2026-05-04 01:52 | 42.22836 | -83.32752 | 1050 ft | 110 kts | 208° |
| 2026-05-04 01:53 | 42.22215 | -83.33210 | 669 ft | 100 kts | 210° |
| 2026-05-04 01:53 | 42.22025 | -83.33354 | 653 ft | 41 kts | 208° |
| 2026-05-04 01:53 | 42.21782 | -83.33542 | 649 ft | 38 kts | 211° |
| 2026-05-04 01:53 | 42.21563 | -83.33707 | 650 ft | 34 kts | 208° |
| 2026-05-04 01:54 | 42.21368 | -83.33850 | 652 ft | 30 kts | 208° |
| 2026-05-04 01:54 | 42.21179 | -83.33989 | 652 ft | 37 kts | 208° |
| 2026-05-04 01:54 | 42.20903 | -83.34191 | 651 ft | 46 kts | 208° |
| 2026-05-04 01:54 | 42.20652 | -83.34411 | 652 ft | 36 kts | 224° |
| 2026-05-04 01:55 | 42.20545 | -83.34621 | 654 ft | 25 kts | 241° |
| 2026-05-04 01:55 | 42.20428 | -83.34790 | 654 ft | 25 kts | 205° |
| 2026-05-04 01:55 | 42.20276 | -83.34908 | 654 ft | 25 kts | 209° |
| 2026-05-04 01:55 | 42.20182 | -83.35048 | 654 ft | 19 kts | 261° |
| 2026-05-04 01:56 | 42.20175 | -83.35227 | 654 ft | 19 kts | 267° |
| 2026-05-04 01:56 | 42.20172 | -83.35420 | 654 ft | 23 kts | 269° |
| 2026-05-04 01:56 | 42.20168 | -83.35640 | 654 ft | 23 kts | 269° |
| 2026-05-04 01:56 | 42.20165 | -83.35861 | 654 ft | 23 kts | 268° |
| 2026-05-04 01:57 | 42.20161 | -83.36079 | 654 ft | 23 kts | 269° |
| 2026-05-04 01:57 | 42.20181 | -83.36296 | 654 ft | 19 kts | 280° |
| 2026-05-04 01:57 | 42.20273 | -83.36390 | 654 ft | 19 kts | 5° |
| 2026-05-04 01:57 | 42.20394 | -83.36322 | 654 ft | 19 kts | 28° |
| 2026-05-04 01:58 | 42.20514 | -83.36235 | 654 ft | 19 kts | 28° |
| 2026-05-04 01:58 | 42.20632 | -83.36150 | 654 ft | 19 kts | 27° |
| 2026-05-04 01:58 | 42.20750 | -83.36061 | 654 ft | 19 kts | 29° |
| 2026-05-04 01:58 | 42.20867 | -83.35974 | 654 ft | 19 kts | 28° |
| 2026-05-04 01:59 | 42.20984 | -83.35889 | 654 ft | 19 kts | 28° |
| 2026-05-04 01:59 | 42.21101 | -83.35807 | 654 ft | 17 kts | 27° |
| 2026-05-04 01:59 | 42.21148 | -83.35739 | 654 ft | 7 kts | 53° |
| 2026-05-04 01:59 | 42.21198 | -83.35723 | 654 ft | 8 kts | 2° |
| 2026-05-04 02:00 | 42.21239 | -83.35707 | 654 ft | 4 kts | 46° |
| 2026-05-04 02:00 | 42.21236 | -83.35663 | 654 ft | 7 kts | 107° |
| 2026-05-04 02:00 | 42.21216 | -83.35613 | 654 ft | 6 kts | 119° |
| 2026-05-04 02:00 | 42.21212 | -83.35603 | 654 ft | 0 kts | 120° |